createdAt,value
2023-02-06T00:01:37.832Z,-8.86
2023-02-06T00:03:41.812Z,-8.57
2023-02-06T00:05:59.469Z,-8.40
2023-02-06T00:08:01.581Z,-8.46
2023-02-06T00:10:20.171Z,-8.36
2023-02-06T00:12:25.171Z,-8.46
2023-02-06T00:14:28.335Z,-8.41
2023-02-06T00:16:33.027Z,-8.23
2023-02-06T00:18:35.993Z,-8.29
2023-02-06T00:20:45.659Z,-8.30
2023-02-06T00:22:48.600Z,-8.35
2023-02-06T00:24:54.593Z,-8.22
2023-02-06T00:27:05.776Z,-8.13
2023-02-06T00:29:07.886Z,-8.13
2023-02-06T00:31:10.523Z,-8.32
2023-02-06T00:33:17.623Z,-8.29
2023-02-06T00:35:20.716Z,-8.25
2023-02-06T00:37:36.442Z,-8.19
2023-02-06T00:39:55.670Z,-8.09
2023-02-06T00:41:58.626Z,-7.98
2023-02-06T00:44:06.662Z,-8.00
2023-02-06T00:46:36.468Z,-8.01
2023-02-06T00:48:42.450Z,-7.94
2023-02-06T00:50:54.110Z,-7.93
2023-02-06T00:52:57.257Z,-8.00
2023-02-06T00:55:01.196Z,-8.01
2023-02-06T00:57:05.124Z,-7.93
2023-02-06T00:59:10.601Z,-7.91
2023-02-06T01:01:16.805Z,-7.90
2023-02-06T01:03:19.927Z,-7.88
2023-02-06T01:05:22.824Z,-7.86
2023-02-06T01:07:26.798Z,-7.95
2023-02-06T01:09:32.911Z,-7.88
2023-02-06T01:11:59.495Z,-7.86
2023-02-06T01:14:02.567Z,-7.91
2023-02-06T01:16:23.571Z,-7.96
2023-02-06T01:18:55.413Z,-8.06
2023-02-06T01:20:57.334Z,-7.97
2023-02-06T01:23:00.279Z,-8.02
2023-02-06T01:25:05.470Z,-7.97
2023-02-06T01:27:16.623Z,-8.06
2023-02-06T01:29:18.520Z,-7.99
2023-02-06T01:31:28.417Z,-7.98
2023-02-06T01:33:31.377Z,-7.99
2023-02-06T01:35:56.580Z,-8.02
2023-02-06T01:38:05.242Z,-8.08
2023-02-06T01:40:13.293Z,-8.17
2023-02-06T01:42:16.316Z,-8.12
2023-02-06T01:44:26.612Z,-8.06
2023-02-06T01:46:35.493Z,-8.09
2023-02-06T01:48:50.959Z,-8.18
2023-02-06T01:50:57.152Z,-8.19
2023-02-06T01:53:07.327Z,-8.22
2023-02-06T01:55:10.280Z,-8.19
2023-02-06T01:57:20.228Z,-8.21
2023-02-06T01:59:25.744Z,-8.22
2023-02-06T02:01:49.233Z,-8.29
2023-02-06T02:03:58.479Z,-8.29
2023-02-06T02:06:06.144Z,-8.35
2023-02-06T02:08:18.568Z,-8.36
2023-02-06T02:10:20.575Z,-8.41
2023-02-06T02:12:38.555Z,-8.41
2023-02-06T02:14:51.453Z,-8.38
2023-02-06T02:17:15.293Z,-8.46
2023-02-06T02:19:54.587Z,-8.43
2023-02-06T02:22:34.031Z,-8.52
2023-02-06T02:25:19.444Z,-8.74
2023-02-06T02:28:22.599Z,-8.85
2023-02-06T02:30:38.150Z,-8.72
2023-02-06T02:32:46.885Z,-8.80
2023-02-06T02:35:04.972Z,-8.84
2023-02-06T02:37:35.256Z,-8.77
2023-02-06T02:40:06.138Z,-8.79
2023-02-06T02:42:20.932Z,-8.62
2023-02-06T02:44:32.989Z,-8.59
2023-02-06T02:46:41.743Z,-8.60
2023-02-06T02:49:05.995Z,-8.60
2023-02-06T02:51:25.757Z,-8.74
2023-02-06T02:53:28.280Z,-8.71
2023-02-06T02:55:32.337Z,-8.70
2023-02-06T02:57:40.558Z,-8.68
2023-02-06T02:59:57.807Z,-8.77
2023-02-06T03:02:11.906Z,-9.01
2023-02-06T03:04:31.288Z,-8.80
2023-02-06T03:06:51.545Z,-8.94
2023-02-06T03:09:12.281Z,-8.93
2023-02-06T03:11:20.416Z,-8.92
2023-02-06T03:13:32.168Z,-8.74
2023-02-06T03:15:48.825Z,-8.75
2023-02-06T03:18:08.626Z,-8.66
2023-02-06T03:20:14.436Z,-8.62
2023-02-06T03:22:17.727Z,-8.63
2023-02-06T03:24:36.128Z,-8.71
2023-02-06T03:26:40.441Z,-8.73
2023-02-06T03:28:50.592Z,-8.72
2023-02-06T03:30:56.731Z,-8.70
2023-02-06T03:33:10.713Z,-8.65
2023-02-06T03:35:22.728Z,-8.62
2023-02-06T03:37:28.511Z,-8.59
2023-02-06T03:39:32.522Z,-8.59
2023-02-06T03:41:39.538Z,-8.55
2023-02-06T03:43:51.277Z,-8.54
2023-02-06T03:46:07.884Z,-8.50
2023-02-06T03:48:19.479Z,-8.57
2023-02-06T03:50:23.772Z,-8.46
2023-02-06T03:52:34.033Z,-8.52
2023-02-06T03:54:49.187Z,-8.56
2023-02-06T03:57:01.344Z,-8.49
2023-02-06T03:59:13.264Z,-8.53
2023-02-06T04:01:18.876Z,-8.68
2023-02-06T04:03:23.138Z,-8.62
2023-02-06T04:05:25.886Z,-8.65
2023-02-06T04:07:36.083Z,-8.67
2023-02-06T04:09:40.291Z,-8.70
2023-02-06T04:11:43.322Z,-8.72
2023-02-06T04:13:52.051Z,-8.71
2023-02-06T04:15:56.427Z,-8.69
2023-02-06T04:18:01.649Z,-8.74
2023-02-06T04:20:06.272Z,-8.82
2023-02-06T04:22:18.629Z,-8.83
2023-02-06T04:24:21.573Z,-8.88
2023-02-06T04:26:24.559Z,-8.90
2023-02-06T04:28:27.354Z,-8.92
2023-02-06T04:30:30.361Z,-8.93
2023-02-06T04:32:32.365Z,-8.89
2023-02-06T04:34:36.202Z,-8.90
2023-02-06T04:36:42.026Z,-8.91
2023-02-06T04:38:44.965Z,-8.92
2023-02-06T04:40:47.810Z,-8.86
2023-02-06T04:42:50.655Z,-8.90
2023-02-06T04:44:53.542Z,-8.79
2023-02-06T04:47:03.306Z,-8.75
2023-02-06T04:49:06.209Z,-8.65
2023-02-06T04:51:20.982Z,-8.63
2023-02-06T04:53:29.009Z,-8.63
2023-02-06T04:55:31.018Z,-8.67
2023-02-06T04:57:33.904Z,-8.79
2023-02-06T04:59:42.019Z,-8.79
2023-02-06T05:01:50.673Z,-8.79
2023-02-06T05:03:54.672Z,-8.69
2023-02-06T05:05:59.794Z,-8.80
2023-02-06T05:08:01.726Z,-8.75
2023-02-06T05:10:22.608Z,-8.71
2023-02-06T05:12:31.660Z,-8.73
2023-02-06T05:14:39.696Z,-8.64
2023-02-06T05:16:48.459Z,-8.62
2023-02-06T05:18:54.493Z,-8.58
2023-02-06T05:21:08.768Z,-8.64
2023-02-06T05:23:11.059Z,-8.65
2023-02-06T05:25:16.250Z,-8.53
2023-02-06T05:27:36.439Z,-8.55
2023-02-06T05:29:38.409Z,-8.45
2023-02-06T05:31:45.364Z,-8.47
2023-02-06T05:33:53.803Z,-8.55
2023-02-06T05:36:02.080Z,-8.52
2023-02-06T05:38:07.054Z,-8.40
2023-02-06T05:40:11.645Z,-8.47
2023-02-06T05:42:14.557Z,-8.48
2023-02-06T05:44:17.622Z,-8.37
2023-02-06T05:46:26.878Z,-8.42
2023-02-06T05:48:30.917Z,-8.45
2023-02-06T05:50:33.029Z,-8.38
2023-02-06T05:52:42.142Z,-8.37
2023-02-06T05:54:45.353Z,-8.36
2023-02-06T05:56:51.316Z,-8.32
2023-02-06T05:58:54.268Z,-8.24
2023-02-06T06:00:57.303Z,-8.29
2023-02-06T06:02:59.180Z,-8.22
2023-02-06T06:05:01.233Z,-8.18
2023-02-06T06:07:08.411Z,-8.15
2023-02-06T06:09:10.362Z,-8.16
2023-02-06T06:11:21.684Z,-8.12
2023-02-06T06:13:29.215Z,-8.11
2023-02-06T06:15:32.303Z,-8.09
2023-02-06T06:17:37.259Z,-8.01
2023-02-06T06:19:39.261Z,-8.17
2023-02-06T06:21:41.143Z,-8.17
2023-02-06T06:23:45.159Z,-8.14
2023-02-06T06:25:48.647Z,-8.05
2023-02-06T06:27:50.621Z,-8.01
2023-02-06T06:30:06.325Z,-7.96
2023-02-06T06:32:20.300Z,-7.93
2023-02-06T06:34:22.878Z,-7.90
2023-02-06T06:36:43.114Z,-7.80
2023-02-06T06:38:47.154Z,-7.74
2023-02-06T06:40:52.151Z,-7.78
2023-02-06T06:43:06.118Z,-7.70
2023-02-06T06:45:12.209Z,-7.72
2023-02-06T06:47:21.089Z,-7.64
2023-02-06T06:49:24.132Z,-7.59
2023-02-06T06:51:29.538Z,-7.61
2023-02-06T06:53:40.268Z,-7.59
2023-02-06T06:55:52.301Z,-7.62
2023-02-06T06:58:14.483Z,-7.56
2023-02-06T07:00:18.668Z,-7.41
2023-02-06T07:02:22.786Z,-7.39
2023-02-06T07:04:36.742Z,-7.40
2023-02-06T07:06:39.732Z,-7.39
2023-02-06T07:08:42.569Z,-7.36
2023-02-06T07:10:45.627Z,-7.28
2023-02-06T07:12:53.901Z,-7.29
2023-02-06T07:14:55.849Z,-7.28
2023-02-06T07:17:05.746Z,-7.24
2023-02-06T07:19:15.802Z,-7.24
2023-02-06T07:21:29.863Z,-7.05
2023-02-06T07:23:31.826Z,-6.98
2023-02-06T07:25:35.199Z,-6.90
2023-02-06T07:27:38.062Z,-6.95
2023-02-06T07:29:45.958Z,-6.98
2023-02-06T07:31:48.023Z,-6.82
2023-02-06T07:33:55.875Z,-6.85
2023-02-06T07:35:59.008Z,-6.63
2023-02-06T07:38:03.066Z,-6.75
2023-02-06T07:40:10.139Z,-6.84
2023-02-06T07:42:13.771Z,-6.77
2023-02-06T07:44:17.872Z,-6.64
2023-02-06T07:46:21.477Z,-6.72
2023-02-06T07:48:28.604Z,-6.50
2023-02-06T07:50:42.514Z,-6.35
2023-02-06T07:52:48.469Z,-6.38
2023-02-06T07:54:55.410Z,-6.55
2023-02-06T07:56:57.398Z,-6.53
2023-02-06T07:59:05.577Z,-6.55
2023-02-06T08:01:08.085Z,-6.59
2023-02-06T08:03:10.210Z,-6.49
2023-02-06T08:05:18.642Z,-6.48
2023-02-06T08:07:32.807Z,-6.33
2023-02-06T08:09:59.464Z,-6.12
2023-02-06T08:12:03.496Z,-5.93
2023-02-06T08:14:09.834Z,-6.04
2023-02-06T08:16:18.827Z,-6.01
2023-02-06T08:18:22.835Z,-6.12
2023-02-06T08:20:25.679Z,-5.97
2023-02-06T08:22:30.232Z,-6.19
2023-02-06T08:24:38.124Z,-5.95
2023-02-06T08:26:42.072Z,-5.87
2023-02-06T08:28:45.740Z,-5.75
2023-02-06T08:30:55.551Z,-5.64
2023-02-06T08:33:11.400Z,-5.72
2023-02-06T08:35:20.613Z,-5.93
2023-02-06T08:37:32.721Z,-5.88
2023-02-06T08:39:35.662Z,-5.99
2023-02-06T08:41:40.292Z,-5.64
2023-02-06T08:43:52.251Z,-5.83
2023-02-06T08:45:59.777Z,-5.90
2023-02-06T08:48:03.928Z,-5.59
2023-02-06T08:50:09.085Z,-5.46
2023-02-06T08:52:12.062Z,-5.69
2023-02-06T08:54:18.211Z,-5.70
2023-02-06T08:56:20.198Z,-5.35
2023-02-06T08:58:22.121Z,-5.35
2023-02-06T09:00:24.243Z,-5.18
2023-02-06T09:02:26.214Z,-5.04
2023-02-06T09:04:37.566Z,-5.41
2023-02-06T09:06:42.362Z,-5.06
2023-02-06T09:08:44.843Z,-4.96
2023-02-06T09:10:54.696Z,-5.04
2023-02-06T09:12:57.960Z,-5.07
2023-02-06T09:15:13.119Z,-4.75
2023-02-06T09:17:15.082Z,-4.78
2023-02-06T09:19:17.080Z,-4.68
2023-02-06T09:21:23.791Z,-4.46
2023-02-06T09:23:25.890Z,-4.73
2023-02-06T09:25:28.834Z,-4.63
2023-02-06T09:27:36.294Z,-4.66
2023-02-06T09:29:41.767Z,-4.48
2023-02-06T09:31:44.883Z,-4.44
2023-02-06T09:33:47.846Z,-4.43
2023-02-06T09:36:09.894Z,-4.55
2023-02-06T09:38:11.830Z,-4.56
2023-02-06T09:40:19.372Z,-4.46
2023-02-06T09:42:27.272Z,-4.33
2023-02-06T09:44:43.637Z,-3.84
2023-02-06T09:46:55.050Z,-3.86
2023-02-06T09:49:03.335Z,-4.11
2023-02-06T09:51:25.045Z,-3.98
2023-02-06T09:53:45.122Z,-4.06
2023-02-06T09:56:17.709Z,-3.52
2023-02-06T09:58:39.886Z,-3.33
2023-02-06T10:00:55.843Z,-3.08
2023-02-06T10:03:35.323Z,-3.15
2023-02-06T10:05:59.172Z,-2.51
2023-02-06T10:08:16.119Z,-2.49
2023-02-06T10:10:32.031Z,-3.14
2023-02-06T10:12:41.882Z,-3.33
2023-02-06T10:15:33.147Z,-3.22
2023-02-06T10:17:46.695Z,-3.32
2023-02-06T10:20:30.044Z,-3.32
2023-02-06T10:22:57.699Z,-2.89
2023-02-06T10:25:13.926Z,-2.98
2023-02-06T10:27:18.100Z,-2.98
2023-02-06T10:29:29.479Z,-2.88
2023-02-06T10:32:20.465Z,-3.43
2023-02-06T10:35:10.941Z,-2.70
2023-02-06T10:37:31.416Z,-2.30
2023-02-06T10:39:55.065Z,-1.69
2023-02-06T10:42:26.150Z,-2.07
2023-02-06T10:44:51.820Z,-2.72
2023-02-06T10:47:05.148Z,-2.91
2023-02-06T10:49:17.105Z,-2.87
2023-02-06T10:51:25.617Z,-2.64
2023-02-06T10:53:39.512Z,-2.70
2023-02-06T10:55:49.282Z,-2.89
2023-02-06T10:58:22.342Z,-3.14
2023-02-06T11:00:31.136Z,-3.05
2023-02-06T11:02:52.796Z,-3.04
2023-02-06T11:05:10.608Z,-2.81
2023-02-06T11:07:25.207Z,-2.97
2023-02-06T11:09:52.778Z,-3.03
2023-02-06T11:11:59.996Z,-3.18
2023-02-06T11:14:14.560Z,-2.98
2023-02-06T11:16:24.684Z,-3.00
2023-02-06T11:18:39.738Z,-3.34
2023-02-06T11:20:43.953Z,-3.13
2023-02-06T11:22:52.619Z,-3.08
2023-02-06T11:25:03.638Z,-3.28
2023-02-06T11:27:22.985Z,-3.46
2023-02-06T11:29:29.038Z,-3.49
2023-02-06T11:31:46.882Z,-3.61
2023-02-06T11:33:57.291Z,-3.31
2023-02-06T11:36:00.791Z,-3.29
2023-02-06T11:38:15.699Z,-3.36
2023-02-06T11:40:27.568Z,-3.31
2023-02-06T11:42:30.544Z,-3.36
2023-02-06T11:44:43.465Z,-3.14
2023-02-06T11:46:47.604Z,-3.15
2023-02-06T11:49:05.970Z,-3.16
2023-02-06T11:51:09.640Z,-3.19
2023-02-06T11:53:18.623Z,-3.08
2023-02-06T11:55:30.998Z,-2.91
2023-02-06T11:57:34.323Z,-3.07
2023-02-06T11:59:49.316Z,-3.15
2023-02-06T12:01:55.614Z,-2.89
2023-02-06T12:03:59.594Z,-2.91
2023-02-06T12:06:24.617Z,-3.12
2023-02-06T12:08:36.518Z,-3.02
2023-02-06T12:10:56.484Z,-3.17
2023-02-06T12:13:14.542Z,-3.09
2023-02-06T12:15:46.080Z,-2.95
2023-02-06T12:18:01.512Z,-3.04
2023-02-06T12:20:15.272Z,-2.85
2023-02-06T12:22:24.850Z,-2.91
2023-02-06T12:24:44.037Z,-2.83
2023-02-06T12:26:48.029Z,-2.87
2023-02-06T12:29:19.873Z,-2.87
2023-02-06T12:31:44.300Z,-2.81
2023-02-06T12:33:58.856Z,-2.96
2023-02-06T12:36:20.945Z,-3.02
2023-02-06T12:38:44.744Z,-2.90
2023-02-06T12:40:50.585Z,-2.91
2023-02-06T12:43:01.562Z,-2.63
2023-02-06T12:45:40.443Z,-2.93
2023-02-06T12:48:03.855Z,-2.70
2023-02-06T12:50:15.582Z,-2.66
2023-02-06T12:52:21.097Z,-2.72
2023-02-06T12:54:33.216Z,-2.73
2023-02-06T12:56:42.023Z,-2.71
2023-02-06T12:59:06.324Z,-2.65
2023-02-06T13:01:47.026Z,-2.51
2023-02-06T13:04:01.916Z,-2.66
2023-02-06T13:06:25.747Z,-2.61
2023-02-06T13:08:58.201Z,-2.40
2023-02-06T13:11:10.769Z,-2.68
2023-02-06T13:13:29.479Z,-2.69
2023-02-06T13:15:41.914Z,-2.67
2023-02-06T13:17:45.360Z,-2.67
2023-02-06T13:20:18.377Z,-2.71
2023-02-06T13:22:45.146Z,-2.65
2023-02-06T13:24:51.444Z,-2.79
2023-02-06T13:26:56.653Z,-2.78
2023-02-06T13:29:00.123Z,-2.83
2023-02-06T13:31:09.982Z,-2.73
2023-02-06T13:33:21.125Z,-2.80
2023-02-06T13:35:29.968Z,-2.73
2023-02-06T13:37:41.068Z,-2.66
2023-02-06T13:39:48.089Z,-2.56
2023-02-06T13:41:52.526Z,-2.54
2023-02-06T13:44:30.931Z,-2.51
2023-02-06T13:47:09.947Z,-2.68
2023-02-06T13:49:36.572Z,-2.66
2023-02-06T13:52:05.898Z,-2.80
2023-02-06T13:54:26.800Z,-2.87
2023-02-06T13:56:58.607Z,-2.75
2023-02-06T13:59:06.674Z,-2.73
2023-02-06T14:01:26.162Z,-2.77
2023-02-06T14:03:34.995Z,-2.84
2023-02-06T14:05:54.001Z,-2.80
2023-02-06T14:08:29.251Z,-2.86
2023-02-06T14:11:02.465Z,-2.91
2023-02-06T14:13:21.397Z,-2.97
2023-02-06T14:15:53.980Z,-2.95
2023-02-06T14:18:18.590Z,-3.05
2023-02-06T14:20:52.960Z,-3.05
2023-02-06T14:23:31.836Z,-3.11
2023-02-06T14:25:49.399Z,-3.11
2023-02-06T14:28:02.479Z,-3.02
2023-02-06T14:30:20.748Z,-3.04
2023-02-06T14:32:38.768Z,-2.99
2023-02-06T14:35:02.694Z,-3.07
2023-02-06T14:37:13.240Z,-3.19
2023-02-06T14:39:52.671Z,-3.23
2023-02-06T14:41:54.879Z,-3.22
2023-02-06T14:43:57.818Z,-3.23
2023-02-06T14:46:08.096Z,-3.31
2023-02-06T14:48:48.469Z,-3.38
2023-02-06T14:50:56.542Z,-3.26
2023-02-06T14:53:25.688Z,-3.28
2023-02-06T14:55:31.996Z,-3.45
2023-02-06T14:57:33.977Z,-3.46
2023-02-06T14:59:35.983Z,-3.49
2023-02-06T15:01:41.914Z,-3.64
2023-02-06T15:03:45.681Z,-3.74
2023-02-06T15:05:59.681Z,-3.75
2023-02-06T15:08:03.939Z,-3.83
2023-02-06T15:10:13.546Z,-3.90
2023-02-06T15:12:21.838Z,-3.98
2023-02-06T15:14:30.356Z,-4.06
2023-02-06T15:16:46.540Z,-4.27
2023-02-06T15:18:49.567Z,-4.30
2023-02-06T15:21:07.563Z,-4.35
2023-02-06T15:23:18.834Z,-4.34
2023-02-06T15:25:44.680Z,-4.44
2023-02-06T15:27:46.746Z,-4.59
2023-02-06T15:29:50.569Z,-4.64
2023-02-06T15:31:57.982Z,-4.51
2023-02-06T15:34:02.868Z,-4.68
2023-02-06T15:36:05.290Z,-4.67
2023-02-06T15:38:13.585Z,-4.74
2023-02-06T15:40:31.413Z,-4.71
2023-02-06T15:43:25.488Z,-4.72
2023-02-06T15:45:36.099Z,-5.03
2023-02-06T15:47:41.614Z,-4.97
2023-02-06T15:49:46.339Z,-5.18
2023-02-06T15:51:55.164Z,-5.19
2023-02-06T15:54:23.189Z,-5.06
2023-02-06T15:56:30.100Z,-5.10
2023-02-06T15:58:34.217Z,-5.21
2023-02-06T16:00:38.040Z,-5.23
2023-02-06T16:02:41.267Z,-5.27
2023-02-06T16:04:43.332Z,-5.17
2023-02-06T16:06:47.045Z,-5.34
2023-02-06T16:08:55.756Z,-5.27
2023-02-06T16:11:02.738Z,-5.36
2023-02-06T16:13:11.273Z,-5.61
2023-02-06T16:15:26.580Z,-5.70
2023-02-06T16:17:38.092Z,-5.45
2023-02-06T16:19:54.379Z,-5.50
2023-02-06T16:22:28.453Z,-5.50
2023-02-06T16:24:31.589Z,-5.67
2023-02-06T16:26:52.441Z,-5.56
2023-02-06T16:28:57.436Z,-5.58
2023-02-06T16:31:05.986Z,-5.63
2023-02-06T16:33:37.556Z,-5.57
2023-02-06T16:35:39.893Z,-5.74
2023-02-06T16:37:42.222Z,-5.61
2023-02-06T16:39:48.370Z,-5.60
2023-02-06T16:41:55.498Z,-5.72
2023-02-06T16:43:59.086Z,-5.70
2023-02-06T16:46:11.894Z,-5.84
2023-02-06T16:48:19.071Z,-5.84
2023-02-06T16:50:24.546Z,-5.71
2023-02-06T16:52:43.788Z,-5.87
2023-02-06T16:54:59.854Z,-5.86
2023-02-06T16:57:36.932Z,-5.73
2023-02-06T16:59:44.852Z,-5.80
2023-02-06T17:01:59.156Z,-5.94
2023-02-06T17:04:03.040Z,-5.87
2023-02-06T17:06:17.453Z,-5.90
2023-02-06T17:08:24.670Z,-5.99
2023-02-06T17:10:32.921Z,-6.04
2023-02-06T17:12:43.398Z,-6.05
2023-02-06T17:14:49.312Z,-6.12
2023-02-06T17:16:56.815Z,-6.04
2023-02-06T17:19:21.322Z,-6.13
2023-02-06T17:21:26.669Z,-6.27
2023-02-06T17:23:35.473Z,-6.29
2023-02-06T17:25:43.039Z,-6.40
2023-02-06T17:27:47.312Z,-6.62
2023-02-06T17:29:57.919Z,-6.56
2023-02-06T17:32:11.216Z,-6.64
2023-02-06T17:34:18.980Z,-6.67
2023-02-06T17:36:33.068Z,-6.55
2023-02-06T17:38:37.788Z,-6.55
2023-02-06T17:40:42.389Z,-6.55
2023-02-06T17:42:46.527Z,-6.72
2023-02-06T17:44:49.557Z,-6.78
2023-02-06T17:46:57.902Z,-6.62
2023-02-06T17:49:07.841Z,-6.63
2023-02-06T17:51:15.134Z,-6.65
2023-02-06T17:53:21.524Z,-6.58
2023-02-06T17:55:32.512Z,-6.70
2023-02-06T17:57:41.681Z,-6.99
2023-02-06T17:59:57.255Z,-6.86
2023-02-06T18:02:08.003Z,-7.13
2023-02-06T18:04:18.160Z,-7.15
2023-02-06T18:06:25.821Z,-6.95
2023-02-06T18:08:31.349Z,-6.90
2023-02-06T18:10:41.019Z,-6.94
2023-02-06T18:12:48.410Z,-6.91
2023-02-06T18:14:52.751Z,-6.84
2023-02-06T18:16:59.576Z,-7.00
2023-02-06T18:19:07.181Z,-6.90
2023-02-06T18:21:10.951Z,-6.82
2023-02-06T18:23:14.116Z,-6.96
2023-02-06T18:25:17.883Z,-6.99
2023-02-06T18:27:23.505Z,-7.16
2023-02-06T18:29:25.772Z,-7.14
2023-02-06T18:31:37.516Z,-7.11
2023-02-06T18:33:45.898Z,-7.11
2023-02-06T18:35:53.280Z,-7.18
2023-02-06T18:37:56.375Z,-7.23
2023-02-06T18:39:59.796Z,-7.24
2023-02-06T18:42:23.168Z,-7.32
2023-02-06T18:44:26.216Z,-7.45
2023-02-06T18:46:28.719Z,-7.39
2023-02-06T18:48:42.519Z,-7.39
2023-02-06T18:50:58.119Z,-7.43
2023-02-06T18:53:03.316Z,-7.34
2023-02-06T18:55:10.106Z,-7.50
2023-02-06T18:57:19.163Z,-7.29
2023-02-06T18:59:23.473Z,-7.22
2023-02-06T19:01:28.094Z,-7.19
2023-02-06T19:03:40.311Z,-7.42
2023-02-06T19:05:44.797Z,-7.49
2023-02-06T19:07:56.080Z,-7.60
2023-02-06T19:10:03.122Z,-7.35
2023-02-06T19:12:07.052Z,-7.30
2023-02-06T19:14:15.884Z,-7.36
2023-02-06T19:16:20.576Z,-7.46
2023-02-06T19:18:39.594Z,-7.64
2023-02-06T19:20:43.346Z,-7.56
2023-02-06T19:22:47.468Z,-7.61
2023-02-06T19:24:54.607Z,-7.58
2023-02-06T19:26:59.166Z,-7.76
2023-02-06T19:29:01.961Z,-7.79
2023-02-06T19:31:06.880Z,-7.79
2023-02-06T19:33:13.821Z,-7.93
2023-02-06T19:35:19.611Z,-8.06
2023-02-06T19:37:23.495Z,-8.00
2023-02-06T19:39:29.861Z,-7.75
2023-02-06T19:41:39.919Z,-8.02
2023-02-06T19:43:46.303Z,-8.25
2023-02-06T19:45:49.341Z,-8.15
2023-02-06T19:47:58.516Z,-8.25
2023-02-06T19:50:02.416Z,-8.34
2023-02-06T19:52:09.472Z,-8.49
2023-02-06T19:54:14.973Z,-8.20
2023-02-06T19:56:27.138Z,-8.19
2023-02-06T19:58:33.922Z,-8.28
2023-02-06T20:00:43.881Z,-8.11
2023-02-06T20:02:47.687Z,-8.41
2023-02-06T20:04:50.369Z,-8.64
2023-02-06T20:06:56.620Z,-8.23
2023-02-06T20:08:58.871Z,-8.19
2023-02-06T20:11:06.997Z,-8.16
2023-02-06T20:13:10.854Z,-8.21
2023-02-06T20:15:14.718Z,-8.69
2023-02-06T20:17:18.860Z,-8.97
2023-02-06T20:19:25.951Z,-8.15
2023-02-06T20:21:33.666Z,-8.15
2023-02-06T20:23:44.058Z,-8.17
2023-02-06T20:25:50.422Z,-8.08
2023-02-06T20:27:59.684Z,-7.98
2023-02-06T20:30:02.361Z,-8.40
2023-02-06T20:32:08.330Z,-8.17
2023-02-06T20:34:17.912Z,-7.93
2023-02-06T20:36:28.773Z,-8.23
2023-02-06T20:38:37.825Z,-8.36
2023-02-06T20:40:45.836Z,-8.35
2023-02-06T20:43:01.662Z,-8.42
2023-02-06T20:45:07.590Z,-8.18
2023-02-06T20:47:10.221Z,-8.26
2023-02-06T20:49:24.617Z,-8.38
2023-02-06T20:51:33.894Z,-8.42
2023-02-06T20:53:42.561Z,-8.53
2023-02-06T20:55:52.738Z,-8.30
2023-02-06T20:57:56.657Z,-8.42
2023-02-06T20:59:58.972Z,-8.11
2023-02-06T21:02:01.366Z,-8.14
2023-02-06T21:04:08.171Z,-8.05
2023-02-06T21:06:17.783Z,-8.12
2023-02-06T21:08:21.300Z,-8.11
2023-02-06T21:10:31.698Z,-8.23
2023-02-06T21:12:38.279Z,-8.03
2023-02-06T21:14:48.779Z,-7.96
2023-02-06T21:16:57.591Z,-8.10
2023-02-06T21:19:01.352Z,-8.12
2023-02-06T21:21:13.260Z,-8.02
2023-02-06T21:23:19.100Z,-8.06
2023-02-06T21:25:28.893Z,-8.04
2023-02-06T21:27:32.391Z,-8.20
2023-02-06T21:29:45.305Z,-8.07
2023-02-06T21:31:48.364Z,-7.95
2023-02-06T21:33:52.329Z,-7.86
2023-02-06T21:35:55.588Z,-7.87
2023-02-06T21:37:58.855Z,-7.99
2023-02-06T21:40:03.533Z,-7.98
2023-02-06T21:42:05.628Z,-8.07
2023-02-06T21:44:23.913Z,-8.12
2023-02-06T21:46:31.878Z,-8.21
2023-02-06T21:48:40.610Z,-8.31
2023-02-06T21:50:42.696Z,-8.26
2023-02-06T21:52:45.612Z,-8.28
2023-02-06T21:54:48.540Z,-8.23
2023-02-06T21:56:54.728Z,-8.32
2023-02-06T21:58:58.151Z,-8.27
2023-02-06T22:01:01.378Z,-8.17
2023-02-06T22:03:03.529Z,-8.26
2023-02-06T22:05:10.694Z,-8.17
2023-02-06T22:07:15.982Z,-8.15
2023-02-06T22:09:19.139Z,-8.21
2023-02-06T22:11:27.792Z,-8.23
2023-02-06T22:13:30.762Z,-8.09
2023-02-06T22:15:33.871Z,-8.23
2023-02-06T22:17:43.695Z,-8.15
2023-02-06T22:19:49.061Z,-8.11
2023-02-06T22:21:52.455Z,-8.25
2023-02-06T22:23:59.281Z,-8.22
2023-02-06T22:26:02.977Z,-8.17
2023-02-06T22:28:05.980Z,-8.14
2023-02-06T22:30:16.503Z,-8.22
2023-02-06T22:32:35.757Z,-8.06
2023-02-06T22:34:43.815Z,-8.08
2023-02-06T22:36:49.262Z,-7.91
2023-02-06T22:38:57.749Z,-7.89
2023-02-06T22:41:12.672Z,-7.77
2023-02-06T22:43:15.727Z,-7.65
2023-02-06T22:45:20.732Z,-7.57
2023-02-06T22:47:28.849Z,-7.53
2023-02-06T22:49:32.062Z,-7.45
2023-02-06T22:51:37.655Z,-7.42
2023-02-06T22:53:59.543Z,-7.31
2023-02-06T22:56:38.995Z,-7.26
2023-02-06T22:59:06.532Z,-7.21
2023-02-06T23:01:13.498Z,-7.17
2023-02-06T23:03:16.494Z,-7.05
2023-02-06T23:05:19.557Z,-7.07
2023-02-06T23:07:22.486Z,-7.05
2023-02-06T23:09:28.728Z,-7.01
2023-02-06T23:11:34.751Z,-6.95
2023-02-06T23:13:41.372Z,-6.95
2023-02-06T23:15:51.796Z,-6.93
2023-02-06T23:17:53.916Z,-6.87
2023-02-06T23:19:59.876Z,-6.93
2023-02-06T23:22:08.146Z,-6.92
2023-02-06T23:24:11.307Z,-6.82
2023-02-06T23:26:21.216Z,-6.82
2023-02-06T23:28:29.366Z,-6.83
2023-02-06T23:30:31.418Z,-6.75
2023-02-06T23:32:55.178Z,-6.78
2023-02-06T23:35:01.253Z,-6.73
2023-02-06T23:37:22.161Z,-6.71
2023-02-06T23:39:28.086Z,-6.72
2023-02-06T23:41:46.278Z,-6.71
2023-02-06T23:43:59.049Z,-6.72
2023-02-06T23:46:11.974Z,-6.74
2023-02-06T23:48:14.259Z,-6.75
2023-02-06T23:50:27.379Z,-6.68
2023-02-06T23:52:34.994Z,-6.73
2023-02-06T23:54:36.870Z,-6.70
